»·PEaware :: N1920F KHAF-KSAC

N1920F :: KHAF-KSAC

FLIGHT INFORMATION

Flight Status: Arrived
Operator: Privately registered:
United States
More flights under this callsign
Pilot: Mark S. (16827)
Aircraft: CESSNA 172 SKYHAWK
(C172)
More flights by this aircraft type
Origin: KHAF Half Moon Bay
United States
Destination: KSAC Sacramento Executive
United States
More flights between these airports :: More routes between these airports
Route: +
File this flight plan on PilotEdge
Remarks:
Altitude:
(Current/Filed)
1,500ft
Speed:
(Current/Filed)
0kts
Departed: 25-Jul-18 08:58 PM
Arrived: 25-Jul-18 09:42 PM
Distance/Time
Traveled:
76nm/0:44
Distance/Time
To Go:
Arrived

Flight Plot

Page will automatically refresh every two minutes.

Flight plan parsing failed; only flown route is shown


Map Options




Map Legend


Flown Route
Filed Route
Departure Airport
Arrival Airport
Navaid (VOR, NDB)
Fix

Horizontal Profiles

Position Reports

Time Latitude Longitude Heading Altitude Ground
Speed
25-Jul-18 20:58 37.666471 -122.532067 358 1549ft 113kts
25-Jul-18 20:59 37.698002 -122.531989 11 1588ft 114kts
25-Jul-18 21:00 37.726441 -122.521418 13 1649ft 113kts
25-Jul-18 21:01 37.758636 -122.516459 5 1522ft 119kts
25-Jul-18 21:02 37.787492 -122.513967 2 2394ft 90kts
25-Jul-18 21:03 37.817490 -122.509707 7 2550ft 113kts
25-Jul-18 21:04 37.848804 -122.505669 1 2564ft 106kts
25-Jul-18 21:05 37.876848 -122.496046 49 2605ft 107kts
25-Jul-18 21:06 37.897207 -122.472114 43 3409ft 89kts
25-Jul-18 21:07 37.916714 -122.444821 49 3583ft 108kts
25-Jul-18 21:08 37.937870 -122.416635 45 3756ft 113kts
25-Jul-18 21:09 37.957452 -122.385162 53 3834ft 115kts
25-Jul-18 21:10 37.976895 -122.353281 50 3942ft 113kts
25-Jul-18 21:11 37.992083 -122.327854 52 4711ft 90kts
25-Jul-18 21:12 38.007499 -122.302271 54 5357ft 92kts
25-Jul-18 21:13 38.024595 -122.272521 52 5490ft 111kts
25-Jul-18 21:14 38.044875 -122.243220 47 5513ft 112kts
25-Jul-18 21:15 38.064530 -122.212802 52 5542ft 111kts
25-Jul-18 21:16 38.082999 -122.181296 57 5561ft 111kts
25-Jul-18 21:17 38.099065 -122.147814 53 5581ft 111kts
25-Jul-18 21:18 38.115763 -122.119025 52 5599ft 111kts
25-Jul-18 21:19 38.135228 -122.088350 52 5599ft 112kts
25-Jul-18 21:20 38.152892 -122.056014 57 5605ft 111kts
25-Jul-18 21:21 38.171530 -122.024694 49 5610ft 111kts
25-Jul-18 21:22 38.190700 -121.993657 54 5613ft 111kts
25-Jul-18 21:23 38.207299 -121.961872 55 5618ft 111kts
25-Jul-18 21:24 38.224684 -121.929382 57 5551ft 112kts
25-Jul-18 21:25 38.242674 -121.897152 54 5413ft 111kts
25-Jul-18 21:26 38.262465 -121.866851 48 5273ft 111kts
25-Jul-18 21:27 38.274595 -121.849028 49 5196ft 111kts
25-Jul-18 21:28 38.291007 -121.824974 48 5096ft 111kts
25-Jul-18 21:29 38.311061 -121.795212 49 4979ft 110kts
25-Jul-18 21:30 38.326226 -121.771860 51 4738ft 112kts
25-Jul-18 21:31 38.344226 -121.739480 57 4142ft 112kts
25-Jul-18 21:32 38.361927 -121.700123 54 3600ft 105kts
25-Jul-18 21:33 38.380117 -121.673048 48 3255ft 107kts
25-Jul-18 21:34 38.399574 -121.653982 38 2948ft 106kts
25-Jul-18 21:35 38.421010 -121.627907 49 2527ft 106kts
25-Jul-18 21:36 38.440776 -121.600685 46 2205ft 103kts
25-Jul-18 21:37 38.462465 -121.576255 34 2088ft 103kts
25-Jul-18 21:38 38.485407 -121.553147 44 1795ft 107kts
25-Jul-18 21:39 38.504041 -121.524645 55 1230ft 105kts
25-Jul-18 21:40 38.522223 -121.501392 34 1048ft 86kts
25-Jul-18 21:41 38.537376 -121.484147 98 601ft 73kts
25-Jul-18 21:42 38.523076 -121.485832 212 236ft 64kts
25-Jul-18 21:43 38.513592 -121.494647 257 24ft 11kts
25-Jul-18 21:44 38.513577 -121.496111 275 24ft 7kts
25-Jul-18 21:45 38.513705 -121.497712 211 24ft 0kts
25-Jul-18 21:46 38.513705 -121.497712 211 24ft 0kts
25-Jul-18 21:47 38.513705 -121.497712 211 24ft 0kts
25-Jul-18 21:48 38.513705 -121.497712 211 24ft 0kts

Navigation Log

Ident Type
Flight plan parsing failed, navigation log unavailable